Time;durP1;ratioP1;P1;durP2;ratioP2;P2;SDS_P1;SDS_P2;PMS_P1;PMS_P2;Temp;Humidity;BMP_temperature;BMP_pressure;BME280_temperature;BME280_humidity;BME280_pressure;Samples;Min_cycle;Max_cycle;Signal;HPM_P1;HPM_P2
2022/02/05 00:00:40;;;;;;;6.97;4.22;;;;;;;;;;5043731;28;20037;-47
2022/02/05 00:03:18;;;;;;;7.30;4.85;;;;;;;;;;5049683;28;20868;-49
2022/02/05 00:40:15;;;;;;;7.15;4.50;;;;;;;;;;5040794;28;20132;-48
2022/02/05 00:42:42;;;;;;;7.82;4.35;;;;;;;;;;5028878;28;20108;-51
2022/02/05 00:45:10;;;;;;;5.47;3.67;;;;;;;;;;5029264;28;20083;-50
2022/02/05 00:47:39;;;;;;;7.60;4.45;;;;;;;;;;5028648;28;20029;-50
2022/02/05 00:50:10;;;;;;;6.85;4.05;;;;;;;;;;5029182;28;20013;-47
2022/02/05 00:52:36;;;;;;;6.57;4.20;;;;;;;;;;5030050;28;20396;-52
2022/02/05 00:55:10;;;;;;;6.45;4.20;;;;;;;;;;5047885;28;20539;-51
2022/02/05 00:57:45;;;;;;;6.00;4.27;;;;;;;;;;5048615;28;20074;-50
2022/02/05 01:00:16;;;;;;;7.47;4.07;;;;;;;;;;5048471;28;20023;-47
2022/02/05 01:02:42;;;;;;;6.43;3.92;;;;;;;;;;5034146;28;20150;-47
2022/02/05 01:05:09;;;;;;;7.65;4.22;;;;;;;;;;5048780;28;20188;-49
2022/02/05 01:07:35;;;;;;;5.63;3.95;;;;;;;;;;5046599;28;20392;-47
2022/02/05 01:10:01;;;;;;;6.20;3.95;;;;;;;;;;5047363;28;20033;-49
2022/02/05 01:12:31;;;;;;;5.13;3.80;;;;;;;;;;5047444;28;20057;-51
2022/02/05 01:14:59;;;;;;;4.82;3.53;;;;;;;;;;5048575;28;20135;-50
2022/02/05 01:17:35;;;;;;;5.70;3.67;;;;;;;;;;5046948;28;20040;-47
2022/02/05 01:20:31;;;;;;;6.38;3.85;;;;;;;;;;5048359;28;20066;-50
2022/02/05 01:22:56;;;;;;;5.68;3.92;;;;;;;;;;5048150;28;20144;-50
2022/02/05 01:25:26;;;;;;;7.07;4.40;;;;;;;;;;5048744;28;20045;-51
2022/02/05 01:27:58;;;;;;;6.43;4.25;;;;;;;;;;5047082;28;20029;-47
2022/02/05 01:30:28;;;;;;;6.22;4.20;;;;;;;;;;5046219;28;20423;-48
2022/02/05 01:54:42;;;;;;;8.15;5.25;;;;;;;;;;5045955;28;20033;-48
2022/02/05 02:05:02;;;;;;;11.00;6.60;;;;;;;;;;5047798;28;20102;-48
2022/02/05 02:15:46;;;;;;;9.70;6.15;;;;;;;;;;5044497;28;20108;-48
2022/02/05 02:18:25;;;;;;;11.75;6.97;;;;;;;;;;5047299;28;20021;-48
2022/02/05 02:23:42;;;;;;;11.82;6.93;;;;;;;;;;5046717;28;20078;-46
2022/02/05 02:31:11;;;;;;;9.57;5.68;;;;;;;;;;5047056;28;20655;-51
2022/02/05 02:33:39;;;;;;;7.70;5.50;;;;;;;;;;5046948;28;20099;-50
2022/02/05 02:36:27;;;;;;;7.82;5.00;;;;;;;;;;5046073;28;20033;-48
2022/02/05 02:38:57;;;;;;;9.07;5.72;;;;;;;;;;5045792;28;20143;-49
2022/02/05 02:41:32;;;;;;;7.65;5.20;;;;;;;;;;5041655;28;20040;-48
2022/02/05 02:43:58;;;;;;;8.07;5.18;;;;;;;;;;5025366;28;20026;-48
2022/02/05 02:46:25;;;;;;;7.15;5.03;;;;;;;;;;5026722;28;20036;-48
2022/02/05 02:48:51;;;;;;;5.97;4.47;;;;;;;;;;5026066;28;20018;-47
2022/02/05 02:57:09;;;;;;;;;;;;;;;;;;5027163;28;20417;-48
2022/02/05 02:59:48;;;;;;;8.57;5.03;;;;;;;;;;5030961;28;19909;-49
2022/02/05 03:02:17;;;;;;;8.73;4.85;;;;;;;;;;5045936;28;20104;-49
2022/02/05 03:04:43;;;;;;;8.07;5.10;;;;;;;;;;5037734;28;20022;-47
2022/02/05 03:07:10;;;;;;;7.03;4.55;;;;;;;;;;5026474;28;20392;-48
2022/02/05 03:09:37;;;;;;;6.95;4.78;;;;;;;;;;5026536;28;20033;-47
2022/02/05 03:12:04;;;;;;;7.75;5.00;;;;;;;;;;5026500;28;20025;-48
2022/02/05 03:14:30;;;;;;;6.32;4.20;;;;;;;;;;5028529;28;20036;-50
2022/02/05 03:17:03;;;;;;;5.55;4.32;;;;;;;;;;5046138;28;20421;-48
2022/02/05 03:19:29;;;;;;;8.10;4.38;;;;;;;;;;5046552;28;20032;-46
2022/02/05 03:21:56;;;;;;;7.25;4.80;;;;;;;;;;5046158;28;20064;-49
2022/02/05 03:24:22;;;;;;;8.15;5.22;;;;;;;;;;5045282;28;20452;-47
2022/02/05 03:26:48;;;;;;;7.82;4.50;;;;;;;;;;5046149;28;20074;-48
2022/02/05 03:29:14;;;;;;;6.55;4.55;;;;;;;;;;5046329;28;20028;-49
2022/02/05 03:31:40;;;;;;;7.60;4.90;;;;;;;;;;5044613;28;20036;-50
2022/02/05 03:34:07;;;;;;;6.60;4.63;;;;;;;;;;5046023;28;20036;-47
2022/02/05 03:36:37;;;;;;;6.15;4.15;;;;;;;;;;5043994;28;20029;-48
2022/02/05 03:39:04;;;;;;;7.43;4.70;;;;;;;;;;5046044;28;20036;-48
2022/02/05 03:41:30;;;;;;;5.85;4.15;;;;;;;;;;5046231;28;20017;-48
2022/02/05 03:43:56;;;;;;;5.53;3.92;;;;;;;;;;5044536;28;20025;-49
2022/02/05 03:46:22;;;;;;;6.00;4.18;;;;;;;;;;5044531;28;20040;-50
2022/02/05 03:48:48;;;;;;;6.05;4.85;;;;;;;;;;5045816;28;20029;-46
2022/02/05 03:51:14;;;;;;;5.13;3.78;;;;;;;;;;5046011;28;20029;-46
2022/02/05 03:53:40;;;;;;;4.53;3.40;;;;;;;;;;5043450;28;20112;-49
2022/02/05 03:56:06;;;;;;;4.75;3.65;;;;;;;;;;5044643;28;20025;-49
2022/02/05 03:58:32;;;;;;;3.78;2.97;;;;;;;;;;5045476;28;20496;-46
2022/02/05 04:00:58;;;;;;;5.10;3.38;;;;;;;;;;5046436;28;20040;-48
2022/02/05 04:03:25;;;;;;;4.40;3.33;;;;;;;;;;5044404;28;20106;-46
2022/02/05 04:05:51;;;;;;;5.75;3.50;;;;;;;;;;5044748;28;20029;-49
2022/02/05 04:08:17;;;;;;;5.40;3.83;;;;;;;;;;5045874;28;20094;-46
2022/02/05 04:10:48;;;;;;;6.28;4.30;;;;;;;;;;5045707;28;20021;-48
2022/02/05 04:16:10;;;;;;;6.00;4.20;;;;;;;;;;5044123;28;20183;-47
2022/02/05 04:18:36;;;;;;;6.55;4.28;;;;;;;;;;5045787;28;20029;-48
2022/02/05 04:21:04;;;;;;;6.30;4.38;;;;;;;;;;5046054;28;20111;-46
2022/02/05 04:23:30;;;;;;;5.88;4.18;;;;;;;;;;5044125;28;20080;-48
2022/02/05 04:25:56;;;;;;;6.00;4.15;;;;;;;;;;5045613;28;20024;-46
2022/02/05 04:28:22;;;;;;;5.15;4.10;;;;;;;;;;5045506;28;20037;-49
2022/02/05 04:30:48;;;;;;;6.65;4.30;;;;;;;;;;5045583;28;20087;-50
2022/02/05 04:33:15;;;;;;;6.07;3.97;;;;;;;;;;5045330;28;20484;-49
2022/02/05 04:35:44;;;;;;;5.30;4.05;;;;;;;;;;5027139;28;20056;-47
2022/02/05 04:38:10;;;;;;;5.05;3.88;;;;;;;;;;5025072;28;20084;-49
2022/02/05 04:41:00;;;;;;;5.47;4.07;;;;;;;;;;5032462;28;20047;-47
2022/02/05 05:04:34;;;;;;;6.15;3.88;;;;;;;;;;5065253;28;20037;-49
2022/02/05 05:20:28;;;;;;;2.47;1.30;;;;;;;;;;5048094;28;19916;-47
2022/02/05 05:22:54;;;;;;;1.98;1.08;;;;;;;;;;5048650;28;20021;-47
2022/02/05 05:25:20;;;;;;;2.25;1.02;;;;;;;;;;5046952;28;20107;-47
2022/02/05 05:27:47;;;;;;;1.77;1.13;;;;;;;;;;5047391;28;20021;-49
2022/02/05 05:30:13;;;;;;;1.23;1.00;;;;;;;;;;5048334;28;20024;-49
2022/02/05 05:32:39;;;;;;;1.70;1.10;;;;;;;;;;5048536;28;20017;-46
2022/02/05 05:35:06;;;;;;;1.63;0.90;;;;;;;;;;5047177;28;20696;-50
2022/02/05 05:37:32;;;;;;;1.38;0.93;;;;;;;;;;5029232;28;20478;-48
2022/02/05 05:39:58;;;;;;;2.10;0.88;;;;;;;;;;5028074;28;20034;-48
2022/02/05 05:42:29;;;;;;;1.65;0.90;;;;;;;;;;5027917;28;20108;-46
2022/02/05 05:50:05;;;;;;;1.50;1.10;;;;;;;;;;5037529;28;20031;-46
2022/02/05 05:52:32;;;;;;;2.00;0.90;;;;;;;;;;5047814;28;20520;-49
2022/02/05 05:54:58;;;;;;;1.27;0.70;;;;;;;;;;5047890;28;20033;-49
2022/02/05 05:57:25;;;;;;;1.40;0.63;;;;;;;;;;5046341;28;20414;-46
2022/02/05 05:59:51;;;;;;;1.33;0.90;;;;;;;;;;5046730;28;20033;-49
2022/02/05 06:02:17;;;;;;;1.65;1.23;;;;;;;;;;5047299;28;20025;-50
2022/02/05 06:04:43;;;;;;;1.42;1.02;;;;;;;;;;5047030;28;20024;-49
2022/02/05 06:07:09;;;;;;;2.35;1.30;;;;;;;;;;5035579;28;20088;-47
2022/02/05 06:09:40;;;;;;;3.08;1.10;;;;;;;;;;5027735;28;20573;-47
2022/02/05 06:12:06;;;;;;;1.40;0.85;;;;;;;;;;5027703;28;20122;-49
2022/02/05 06:14:32;;;;;;;2.03;1.23;;;;;;;;;;5026349;28;20061;-45
2022/02/05 06:17:07;;;;;;;1.70;1.00;;;;;;;;;;5034735;28;20115;-47
2022/02/05 06:19:33;;;;;;;2.13;1.10;;;;;;;;;;5046074;28;20029;-50
2022/02/05 06:21:59;;;;;;;2.70;1.00;;;;;;;;;;5046289;28;20021;-47
2022/02/05 06:24:25;;;;;;;1.33;0.80;;;;;;;;;;5046780;28;20770;-48
2022/02/05 06:26:51;;;;;;;2.08;1.00;;;;;;;;;;5045805;28;20025;-49
2022/02/05 06:29:17;;;;;;;2.20;1.08;;;;;;;;;;5046300;28;20035;-46
2022/02/05 06:31:44;;;;;;;2.05;0.80;;;;;;;;;;5047919;28;20131;-49
2022/02/05 06:34:10;;;;;;;1.90;0.90;;;;;;;;;;5042654;28;20033;-48
2022/02/05 06:36:36;;;;;;;2.03;0.90;;;;;;;;;;5045602;28;21031;-47
2022/02/05 06:39:02;;;;;;;1.88;0.88;;;;;;;;;;5046535;28;20053;-46
2022/02/05 06:41:29;;;;;;;1.33;0.65;;;;;;;;;;5042237;28;21191;-49
2022/02/05 06:43:55;;;;;;;1.10;0.70;;;;;;;;;;5046732;28;20075;-48
2022/02/05 06:46:21;;;;;;;1.40;0.80;;;;;;;;;;5035088;28;20873;-48
2022/02/05 06:48:47;;;;;;;1.95;0.70;;;;;;;;;;5045385;28;20032;-46
2022/02/05 06:51:13;;;;;;;1.73;0.80;;;;;;;;;;5046647;28;20532;-47
2022/02/05 06:53:39;;;;;;;2.72;0.98;;;;;;;;;;5046665;28;20539;-47
2022/02/05 06:56:05;;;;;;;1.15;0.80;;;;;;;;;;5033236;28;20644;-50
2022/02/05 06:58:31;;;;;;;2.65;0.90;;;;;;;;;;5025474;28;20468;-48
2022/02/05 07:00:57;;;;;;;4.65;2.55;;;;;;;;;;5026975;28;20402;-48
2022/02/05 07:03:23;;;;;;;8.35;4.05;;;;;;;;;;5026584;28;20022;-50
2022/02/05 07:05:50;;;;;;;8.95;4.05;;;;;;;;;;5039625;28;20545;-49
2022/02/05 07:08:16;;;;;;;9.70;4.20;;;;;;;;;;5028458;28;20083;-46
2022/02/05 07:10:42;;;;;;;7.80;3.38;;;;;;;;;;5025618;28;20083;-47
2022/02/05 07:13:15;;;;;;;6.78;3.28;;;;;;;;;;5027065;28;20099;-48
2022/02/05 07:15:59;;;;;;;3.45;1.83;;;;;;;;;;5044404;28;20051;-50
2022/02/05 07:21:07;;;;;;;5.10;1.50;;;;;;;;;;5046298;28;20035;-47
2022/02/05 07:31:58;;;;;;;5.55;2.60;;;;;;;;;;5027617;28;20590;-47
2022/02/05 07:34:26;;;;;;;2.60;1.85;;;;;;;;;;5027399;28;20643;-49
2022/02/05 07:36:58;;;;;;;5.35;2.65;;;;;;;;;;5033225;28;20044;-50
2022/02/05 07:39:24;;;;;;;4.95;2.42;;;;;;;;;;5026825;28;20025;-50
2022/02/05 07:41:50;;;;;;;5.05;2.55;;;;;;;;;;5030911;28;20608;-50
2022/02/05 07:44:17;;;;;;;8.30;3.53;;;;;;;;;;5032320;28;20025;-51
2022/02/05 07:46:46;;;;;;;4.95;2.47;;;;;;;;;;5034446;28;20033;-50
2022/02/05 07:49:16;;;;;;;4.63;2.00;;;;;;;;;;5032827;28;20061;-51
2022/02/05 07:51:43;;;;;;;2.50;1.80;;;;;;;;;;5030480;28;20029;-49
2022/02/05 07:54:11;;;;;;;2.80;1.88;;;;;;;;;;5031551;28;20812;-51
2022/02/05 07:56:38;;;;;;;3.05;1.42;;;;;;;;;;5034649;28;20047;-52
2022/02/05 07:59:04;;;;;;;4.78;1.63;;;;;;;;;;5030277;28;20030;-49
2022/02/05 08:01:30;;;;;;;1.70;1.10;;;;;;;;;;5027579;28;20385;-51
2022/02/05 08:03:56;;;;;;;2.50;1.25;;;;;;;;;;5061551;28;20105;-50
2022/02/05 08:06:22;;;;;;;2.38;1.00;;;;;;;;;;5058360;28;20040;-49
2022/02/05 08:08:50;;;;;;;1.52;0.82;;;;;;;;;;5026412;28;20585;-50
2022/02/05 08:11:20;;;;;;;3.00;1.40;;;;;;;;;;5035154;28;20037;-49
2022/02/05 08:13:50;;;;;;;4.18;2.00;;;;;;;;;;5043698;28;20032;-47
2022/02/05 08:18:48;;;;;;;2.55;1.52;;;;;;;;;;5047335;28;20086;-51
2022/02/05 08:21:14;;;;;;;2.65;1.30;;;;;;;;;;5028109;28;20038;-50
2022/02/05 08:23:40;;;;;;;4.38;1.50;;;;;;;;;;5041422;28;20025;-51
2022/02/05 08:26:06;;;;;;;2.40;1.30;;;;;;;;;;5048325;28;20631;-51
2022/02/05 08:28:34;;;;;;;2.28;1.27;;;;;;;;;;5048674;28;20032;-49
2022/02/05 08:31:00;;;;;;;2.97;1.65;;;;;;;;;;5049767;28;20599;-50
2022/02/05 08:33:26;;;;;;;1.85;1.20;;;;;;;;;;5035931;28;20440;-51
2022/02/05 08:35:53;;;;;;;1.80;1.17;;;;;;;;;;5048418;28;20029;-51
2022/02/05 08:38:19;;;;;;;2.72;1.38;;;;;;;;;;5041019;28;20047;-49
2022/02/05 08:43:51;;;;;;;4.25;1.90;;;;;;;;;;5037290;28;20036;-51
2022/02/05 08:46:17;;;;;;;2.33;1.35;;;;;;;;;;5039254;28;20072;-51
2022/02/05 08:48:43;;;;;;;2.75;1.55;;;;;;;;;;5050134;28;20025;-52
2022/02/05 08:51:12;;;;;;;2.00;1.30;;;;;;;;;;5042819;28;20546;-50
2022/02/05 08:53:38;;;;;;;1.88;1.35;;;;;;;;;;5042140;28;20040;-49
2022/02/05 08:56:05;;;;;;;1.80;1.20;;;;;;;;;;5030243;28;20033;-49
2022/02/05 08:58:31;;;;;;;3.90;1.42;;;;;;;;;;5029343;28;20025;-48
2022/02/05 09:01:20;;;;;;;1.95;0.88;;;;;;;;;;5029834;28;20114;-49
2022/02/05 09:06:29;;;;;;;1.70;0.80;;;;;;;;;;5028736;28;20044;-51
2022/02/05 09:09:07;;;;;;;1.20;0.80;;;;;;;;;;5029670;28;20030;-51
2022/02/05 09:11:40;;;;;;;1.95;1.13;;;;;;;;;;5029513;28;20033;-49
2022/02/05 09:14:17;;;;;;;2.83;0.98;;;;;;;;;;5040370;28;20021;-52
2022/02/05 09:16:44;;;;;;;1.52;0.90;;;;;;;;;;5027899;28;20372;-49
2022/02/05 09:19:10;;;;;;;3.05;0.88;;;;;;;;;;5025954;28;20601;-50
2022/02/05 09:21:36;;;;;;;1.30;0.85;;;;;;;;;;5026041;28;20059;-49
2022/02/05 09:24:05;;;;;;;1.33;0.70;;;;;;;;;;5026301;28;20057;-52
2022/02/05 09:26:31;;;;;;;2.50;0.90;;;;;;;;;;5025936;28;20028;-48
2022/02/05 09:29:10;;;;;;;2.70;0.70;;;;;;;;;;5026315;28;20037;-51
2022/02/05 09:31:36;;;;;;;3.15;0.82;;;;;;;;;;5026552;28;20043;-48
2022/02/05 09:34:06;;;;;;;1.50;0.70;;;;;;;;;;5031099;28;20511;-51
2022/02/05 09:36:33;;;;;;;1.52;0.90;;;;;;;;;;5047301;28;20033;-50
2022/02/05 09:38:59;;;;;;;2.10;0.80;;;;;;;;;;5047771;28;20029;-50
2022/02/05 09:41:25;;;;;;;1.38;0.80;;;;;;;;;;5047417;28;20064;-51
2022/02/05 09:43:51;;;;;;;1.92;0.98;;;;;;;;;;5044697;28;20425;-51
2022/02/05 09:46:18;;;;;;;2.78;1.00;;;;;;;;;;5048905;28;20032;-50
2022/02/05 09:48:46;;;;;;;1.92;1.00;;;;;;;;;;5049585;28;20021;-51
2022/02/05 09:51:16;;;;;;;3.83;1.23;;;;;;;;;;5042673;28;20057;-48
2022/02/05 09:53:46;;;;;;;1.98;1.10;;;;;;;;;;5039854;28;20033;-51
2022/02/05 09:56:13;;;;;;;1.70;1.02;;;;;;;;;;5047597;28;20043;-50
2022/02/05 09:58:39;;;;;;;3.97;1.55;;;;;;;;;;5038232;28;20044;-49
2022/02/05 10:01:10;;;;;;;2.35;1.38;;;;;;;;;;5043282;28;20029;-51
2022/02/05 10:03:38;;;;;;;3.80;1.45;;;;;;;;;;5043806;28;20017;-51
2022/02/05 10:06:12;;;;;;;1.35;1.00;;;;;;;;;;5027394;28;20500;-51
2022/02/05 10:08:39;;;;;;;2.28;1.00;;;;;;;;;;5027305;28;20041;-50
2022/02/05 10:11:05;;;;;;;2.47;1.02;;;;;;;;;;5027392;28;20021;-48
2022/02/05 10:13:32;;;;;;;1.35;0.70;;;;;;;;;;5026794;28;20075;-52
2022/02/05 10:15:58;;;;;;;1.02;0.80;;;;;;;;;;5031985;28;20033;-51
2022/02/05 10:18:33;;;;;;;3.72;0.90;;;;;;;;;;5046743;28;20535;-48
2022/02/05 10:21:00;;;;;;;1.83;0.82;;;;;;;;;;5046833;28;20032;-52
2022/02/05 10:23:27;;;;;;;1.27;0.63;;;;;;;;;;5048027;28;20100;-50
2022/02/05 10:25:54;;;;;;;1.13;0.70;;;;;;;;;;5057963;28;20500;-50
2022/02/05 10:28:20;;;;;;;2.42;0.60;;;;;;;;;;5046213;28;20031;-52
2022/02/05 10:30:49;;;;;;;0.57;0.50;;;;;;;;;;5047298;28;20036;-51
2022/02/05 10:33:25;;;;;;;1.98;0.60;;;;;;;;;;5047423;28;20064;-52
2022/02/05 10:36:00;;;;;;;3.20;0.60;;;;;;;;;;5044313;28;20056;-53
2022/02/05 10:38:53;;;;;;;2.67;0.90;;;;;;;;;;5042326;28;20107;-52
2022/02/05 10:44:11;;;;;;;3.30;0.82;;;;;;;;;;5046707;28;20091;-52
2022/02/05 10:46:42;;;;;;;1.00;0.70;;;;;;;;;;5026459;28;20124;-53
2022/02/05 10:49:09;;;;;;;0.60;0.40;;;;;;;;;;5028900;28;20529;-52
2022/02/05 10:51:42;;;;;;;1.63;0.73;;;;;;;;;;5029117;28;20574;-52
2022/02/05 10:54:17;;;;;;;1.63;0.90;;;;;;;;;;5038076;28;20040;-49
2022/02/05 10:57:00;;;;;;;1.38;0.60;;;;;;;;;;5046578;28;20079;-50
2022/02/05 10:59:51;;;;;;;0.85;0.52;;;;;;;;;;5033947;28;20146;-50
2022/02/05 11:05:23;;;;;;;1.33;0.50;;;;;;;;;;5043304;28;20038;-52
2022/02/05 11:07:49;;;;;;;1.90;0.65;;;;;;;;;;5037030;28;20497;-53
2022/02/05 11:10:36;;;;;;;0.85;0.47;;;;;;;;;;5026310;28;20036;-51
2022/02/05 11:21:22;;;;;;;2.33;0.70;;;;;;;;;;5027335;28;20083;-53
2022/02/05 11:23:53;;;;;;;1.10;0.50;;;;;;;;;;5030093;28;20039;-50
2022/02/05 11:26:20;;;;;;;1.92;0.50;;;;;;;;;;5029344;28;20076;-53
2022/02/05 11:28:51;;;;;;;1.10;0.60;;;;;;;;;;5027788;28;20040;-53
2022/02/05 11:31:29;;;;;;;1.17;0.70;;;;;;;;;;5029154;28;20448;-51
2022/02/05 11:34:10;;;;;;;2.60;0.60;;;;;;;;;;5031262;28;20017;-53
2022/02/05 11:36:40;;;;;;;3.30;0.90;;;;;;;;;;5041685;28;20111;-53
2022/02/05 11:39:06;;;;;;;1.55;0.90;;;;;;;;;;5046909;28;20096;-47
2022/02/05 11:41:34;;;;;;;2.28;0.90;;;;;;;;;;5042854;28;20037;-49
2022/02/05 11:44:39;;;;;;;2.53;0.80;;;;;;;;;;5032694;28;20032;-48
2022/02/05 11:47:05;;;;;;;1.73;0.70;;;;;;;;;;5046286;28;20116;-49
2022/02/05 11:49:49;;;;;;;1.77;0.60;;;;;;;;;;5047946;28;20033;-49
2022/02/05 11:52:34;;;;;;;1.30;0.80;;;;;;;;;;5042034;28;20140;-47
2022/02/05 11:55:00;;;;;;;;;;;;;;;;;;5033054;28;20028;-50
2022/02/05 11:57:44;;;;;;;1.73;0.70;;;;;;;;;;5034489;28;19917;-50
2022/02/05 12:00:11;;;;;;;0.98;0.82;;;;;;;;;;5042171;28;20025;-50
2022/02/05 12:02:41;;;;;;;1.92;0.68;;;;;;;;;;5047922;28;20025;-51
2022/02/05 12:05:19;;;;;;;1.55;0.73;;;;;;;;;;5037275;28;20459;-50
2022/02/05 12:08:03;;;;;;;1.90;0.63;;;;;;;;;;5036428;28;20021;-49
2022/02/05 12:10:29;;;;;;;;;;;;;;;;;;5047177;28;20561;-50
2022/02/05 12:13:13;;;;;;;2.20;0.75;;;;;;;;;;5031997;28;19955;-50
2022/02/05 12:15:39;;;;;;;2.95;0.70;;;;;;;;;;5029850;28;20036;-51
2022/02/05 12:20:52;;;;;;;1.40;0.70;;;;;;;;;;5040490;28;20112;-52
2022/02/05 12:25:59;;;;;;;2.17;0.50;;;;;;;;;;5036743;28;20405;-50
2022/02/05 12:28:32;;;;;;;1.70;0.40;;;;;;;;;;5041673;28;20056;-50
2022/02/05 12:31:00;;;;;;;1.85;0.77;;;;;;;;;;5047694;28;20075;-50
2022/02/05 12:33:27;;;;;;;0.43;0.38;;;;;;;;;;5042659;28;20454;-52
2022/02/05 12:35:55;;;;;;;0.77;0.60;;;;;;;;;;5036451;28;20492;-52
2022/02/05 12:38:22;;;;;;;2.33;0.50;;;;;;;;;;5032125;28;20055;-52
2022/02/05 12:40:49;;;;;;;0.88;0.43;;;;;;;;;;5029551;28;20412;-50
2022/02/05 12:43:15;;;;;;;0.75;0.40;;;;;;;;;;5046860;28;20033;-47
2022/02/05 12:46:09;;;;;;;0.60;0.40;;;;;;;;;;5042167;28;20017;-52
2022/02/05 12:48:35;;;;;;;0.95;0.50;;;;;;;;;;5034493;28;20517;-51
2022/02/05 12:51:04;;;;;;;2.55;0.65;;;;;;;;;;5033108;28;20068;-50
2022/02/05 12:53:32;;;;;;;1.08;0.40;;;;;;;;;;5035548;28;20400;-51
2022/02/05 12:56:18;;;;;;;2.03;0.47;;;;;;;;;;5025326;28;20523;-49
2022/02/05 12:59:15;;;;;;;0.88;0.60;;;;;;;;;;5030549;28;20033;-51
2022/02/05 13:01:56;;;;;;;1.23;0.70;;;;;;;;;;5038642;28;20503;-52
2022/02/05 13:04:24;;;;;;;1.52;0.40;;;;;;;;;;5036664;28;20079;-49
2022/02/05 13:07:00;;;;;;;0.90;0.47;;;;;;;;;;5020267;28;20113;-48
2022/02/05 13:09:28;;;;;;;2.10;0.60;;;;;;;;;;5028911;28;20096;-51
2022/02/05 13:12:06;;;;;;;1.13;0.60;;;;;;;;;;5036395;28;20404;-48
2022/02/05 13:14:35;;;;;;;1.98;0.50;;;;;;;;;;5046232;28;20133;-51
2022/02/05 13:17:01;;;;;;;1.00;0.45;;;;;;;;;;5044827;28;20053;-47
2022/02/05 13:19:38;;;;;;;0.90;0.52;;;;;;;;;;5039176;28;20033;-51
2022/02/05 13:27:40;;;;;;;1.73;0.73;;;;;;;;;;5029115;28;20075;-50
2022/02/05 13:35:55;;;;;;;1.00;0.65;;;;;;;;;;5029332;28;20064;-50
2022/02/05 13:38:21;;;;;;;1.00;0.50;;;;;;;;;;5038451;28;20029;-52
2022/02/05 13:40:58;;;;;;;1.48;0.50;;;;;;;;;;5034391;28;20036;-48
2022/02/05 13:43:30;;;;;;;2.22;0.82;;;;;;;;;;5038494;28;20044;-51
2022/02/05 13:46:09;;;;;;;2.97;1.05;;;;;;;;;;5039861;28;20075;-49
2022/02/05 13:48:36;;;;;;;1.92;0.60;;;;;;;;;;5036331;28;20613;-51
2022/02/05 13:51:06;;;;;;;2.97;0.80;;;;;;;;;;5033904;28;20058;-51
2022/02/05 13:53:32;;;;;;;1.25;0.60;;;;;;;;;;5031725;28;20030;-48
2022/02/05 13:55:58;;;;;;;1.55;0.60;;;;;;;;;;5034498;28;20037;-52
2022/02/05 13:58:24;;;;;;;0.88;0.40;;;;;;;;;;5032933;28;20039;-52
2022/02/05 14:00:54;;;;;;;0.93;0.40;;;;;;;;;;5033740;28;20503;-50
2022/02/05 14:03:33;;;;;;;1.27;0.70;;;;;;;;;;5026889;28;20060;-48
2022/02/05 14:06:02;;;;;;;2.00;0.60;;;;;;;;;;5035976;28;20496;-50
2022/02/05 14:08:28;;;;;;;1.67;0.65;;;;;;;;;;5030253;28;20033;-49
2022/02/05 14:10:57;;;;;;;0.82;0.60;;;;;;;;;;5035031;28;20036;-51
2022/02/05 14:13:23;;;;;;;2.40;0.80;;;;;;;;;;5044953;28;20400;-48
2022/02/05 14:15:55;;;;;;;1.42;0.85;;;;;;;;;;5042769;28;20036;-49
2022/02/05 14:18:21;;;;;;;1.08;0.60;;;;;;;;;;5035533;28;20447;-49
2022/02/05 14:20:48;;;;;;;0.90;0.50;;;;;;;;;;5037014;28;20056;-50
2022/02/05 14:23:17;;;;;;;1.80;0.70;;;;;;;;;;5027404;28;20032;-49
2022/02/05 14:28:41;;;;;;;1.55;0.50;;;;;;;;;;5025280;28;20697;-49
2022/02/05 14:31:11;;;;;;;1.52;0.68;;;;;;;;;;5037499;28;20033;-48
2022/02/05 14:34:04;;;;;;;1.90;0.70;;;;;;;;;;5041814;28;20075;-50
2022/02/05 14:36:44;;;;;;;0.85;0.70;;;;;;;;;;5032777;28;20045;-49
2022/02/05 14:42:01;;;;;;;1.75;0.60;;;;;;;;;;5036449;28;20519;-51
2022/02/05 14:44:28;;;;;;;1.65;0.60;;;;;;;;;;5033619;28;20028;-49
2022/02/05 14:46:54;;;;;;;2.42;0.60;;;;;;;;;;5035106;28;20605;-49
2022/02/05 14:49:20;;;;;;;1.45;0.80;;;;;;;;;;5033401;28;20045;-50
2022/02/05 14:51:46;;;;;;;2.08;0.60;;;;;;;;;;5039884;28;20029;-51
2022/02/05 14:54:13;;;;;;;1.42;0.60;;;;;;;;;;5027984;28;20113;-48
2022/02/05 14:56:41;;;;;;;3.75;0.80;;;;;;;;;;5031410;28;20354;-47
2022/02/05 14:59:07;;;;;;;1.15;0.65;;;;;;;;;;5034825;28;20030;-49
2022/02/05 15:01:34;;;;;;;3.33;0.82;;;;;;;;;;5027914;28;20028;-48
2022/02/05 15:04:01;;;;;;;2.38;0.80;;;;;;;;;;5036923;28;20433;-49
2022/02/05 15:06:28;;;;;;;1.30;0.50;;;;;;;;;;5038190;28;20029;-48
2022/02/05 15:08:57;;;;;;;2.10;0.60;;;;;;;;;;5038643;28;20029;-49
2022/02/05 15:11:25;;;;;;;1.10;0.80;;;;;;;;;;5031935;28;20037;-50
2022/02/05 15:14:00;;;;;;;3.10;0.80;;;;;;;;;;5028557;28;20025;-47
2022/02/05 15:16:25;;;;;;;;;;;;;;;;;;5033528;28;20045;-48
2022/02/05 15:18:54;;;;;;;3.58;0.90;;;;;;;;;;5036102;28;20395;-51
2022/02/05 15:21:21;;;;;;;2.20;0.80;;;;;;;;;;5024525;28;20536;-49
2022/02/05 15:23:48;;;;;;;2.92;0.88;;;;;;;;;;5025167;28;20508;-50
2022/02/05 15:26:16;;;;;;;2.13;0.80;;;;;;;;;;5029996;28;20028;-49
2022/02/05 15:28:43;;;;;;;2.08;0.80;;;;;;;;;;5029695;28;20021;-51
2022/02/05 15:31:09;;;;;;;1.80;0.70;;;;;;;;;;5042135;28;20411;-51
2022/02/05 15:33:41;;;;;;;2.17;0.85;;;;;;;;;;5028346;28;20688;-51
2022/02/05 15:36:08;;;;;;;4.55;1.20;;;;;;;;;;5033084;28;20064;-51
2022/02/05 15:44:15;;;;;;;5.72;3.28;;;;;;;;;;5031021;28;20040;-51
2022/02/05 15:46:41;;;;;;;2.63;2.22;;;;;;;;;;5031997;28;20499;-52
2022/02/05 15:49:07;;;;;;;4.00;1.98;;;;;;;;;;5042602;28;20057;-51
2022/02/05 15:51:33;;;;;;;3.28;1.42;;;;;;;;;;5034025;28;20057;-51
2022/02/05 15:54:03;;;;;;;3.00;1.10;;;;;;;;;;5027310;28;20396;-48
2022/02/05 15:59:03;;;;;;;2.92;1.75;;;;;;;;;;5023607;28;20048;-51
2022/02/05 16:01:30;;;;;;;4.95;2.53;;;;;;;;;;5026619;28;20069;-51
2022/02/05 16:03:56;;;;;;;5.82;2.78;;;;;;;;;;5042352;28;20404;-52
2022/02/05 16:06:22;;;;;;;4.22;2.25;;;;;;;;;;5034610;28;20025;-49
2022/02/05 16:08:48;;;;;;;3.50;2.20;;;;;;;;;;5039893;28;20354;-51
2022/02/05 16:11:17;;;;;;;6.65;2.70;;;;;;;;;;5033819;28;20032;-51
2022/02/05 16:13:44;;;;;;;3.53;1.92;;;;;;;;;;5031235;28;20079;-52
2022/02/05 16:16:10;;;;;;;3.00;1.63;;;;;;;;;;5034985;28;20030;-52
2022/02/05 16:18:36;;;;;;;3.97;1.70;;;;;;;;;;5028581;28;20039;-50
2022/02/05 16:21:02;;;;;;;3.67;1.40;;;;;;;;;;5025573;28;20120;-49
2022/02/05 16:23:28;;;;;;;3.33;1.38;;;;;;;;;;5031280;28;20063;-52
2022/02/05 16:25:55;;;;;;;2.03;1.20;;;;;;;;;;5026992;28;20525;-51
2022/02/05 16:28:21;;;;;;;3.00;1.65;;;;;;;;;;5025661;28;20032;-52
2022/02/05 16:30:52;;;;;;;1.88;1.20;;;;;;;;;;5039434;28;20496;-49
2022/02/05 16:33:21;;;;;;;4.10;1.65;;;;;;;;;;5035013;28;20025;-48
2022/02/05 16:35:55;;;;;;;2.92;1.40;;;;;;;;;;5029535;28;20021;-49
2022/02/05 16:38:29;;;;;;;;;;;;;;;;;;5034363;28;20029;-49
2022/02/05 16:40:58;;;;;;;2.42;0.98;;;;;;;;;;5029785;28;19913;-49
2022/02/05 16:43:24;;;;;;;2.65;1.00;;;;;;;;;;5032609;28;20026;-51
2022/02/05 16:45:50;;;;;;;2.17;0.98;;;;;;;;;;5039715;28;20525;-50
2022/02/05 16:48:17;;;;;;;3.35;1.10;;;;;;;;;;5034298;28;20075;-52
2022/02/05 16:50:45;;;;;;;2.97;1.10;;;;;;;;;;5033497;28;20022;-51
2022/02/05 16:53:12;;;;;;;2.13;1.00;;;;;;;;;;5027677;28;20061;-51
2022/02/05 16:55:39;;;;;;;2.20;0.90;;;;;;;;;;5034532;28;20393;-50
2022/02/05 16:58:05;;;;;;;2.38;1.00;;;;;;;;;;5035479;28;20513;-51
2022/02/05 17:00:33;;;;;;;1.73;0.80;;;;;;;;;;5039448;28;20025;-51
2022/02/05 17:03:00;;;;;;;2.15;0.80;;;;;;;;;;5032420;28;20488;-51
2022/02/05 17:05:29;;;;;;;3.20;0.93;;;;;;;;;;5030524;28;20259;-51
2022/02/05 17:07:59;;;;;;;1.38;0.70;;;;;;;;;;5035479;28;20025;-51
2022/02/05 17:10:29;;;;;;;1.15;0.65;;;;;;;;;;5039648;28;20025;-50
2022/02/05 17:12:55;;;;;;;2.13;0.68;;;;;;;;;;5034895;28;20034;-49
2022/02/05 17:15:22;;;;;;;1.80;0.80;;;;;;;;;;5032208;28;20025;-50
2022/02/05 17:17:58;;;;;;;1.10;0.68;;;;;;;;;;5031211;28;20025;-48
2022/02/05 17:20:29;;;;;;;1.48;0.60;;;;;;;;;;5031103;28;20025;-50
2022/02/05 17:22:56;;;;;;;1.85;0.80;;;;;;;;;;5030401;28;20025;-49
2022/02/05 17:25:24;;;;;;;2.70;1.23;;;;;;;;;;5033242;28;20017;-52
2022/02/05 17:27:51;;;;;;;3.33;1.95;;;;;;;;;;5030039;28;20057;-50
2022/02/05 17:30:17;;;;;;;2.15;1.60;;;;;;;;;;5030881;28;20022;-49
2022/02/05 17:32:45;;;;;;;2.08;1.48;;;;;;;;;;5027008;28;20112;-51
2022/02/05 17:35:11;;;;;;;3.10;1.60;;;;;;;;;;5032543;28;20773;-50
2022/02/05 17:37:39;;;;;;;2.40;1.83;;;;;;;;;;5030099;28;20025;-51
2022/02/05 17:40:06;;;;;;;3.75;1.83;;;;;;;;;;5029416;28;20021;-50
2022/02/05 17:42:32;;;;;;;5.13;2.00;;;;;;;;;;5040393;28;20029;-49
2022/02/05 17:44:59;;;;;;;2.13;1.50;;;;;;;;;;5039948;28;20044;-51
2022/02/05 17:47:25;;;;;;;2.72;1.38;;;;;;;;;;5034352;28;20017;-51
2022/02/05 17:49:51;;;;;;;4.70;2.30;;;;;;;;;;5041698;28;20064;-51
2022/02/05 17:52:17;;;;;;;2.38;1.80;;;;;;;;;;5041221;28;20025;-51
2022/02/05 17:54:43;;;;;;;3.20;2.05;;;;;;;;;;5033169;28;20659;-51
2022/02/05 17:57:10;;;;;;;3.63;2.13;;;;;;;;;;5032089;28;20025;-48
2022/02/05 17:59:37;;;;;;;4.10;1.88;;;;;;;;;;5027267;28;20428;-50
2022/02/05 18:02:03;;;;;;;5.22;2.13;;;;;;;;;;5034290;28;20017;-51
2022/02/05 18:04:29;;;;;;;5.53;2.20;;;;;;;;;;5028199;28;20030;-49
2022/02/05 18:07:04;;;;;;;6.45;2.00;;;;;;;;;;5034022;28;20030;-52
2022/02/05 18:09:49;;;;;;;2.78;1.80;;;;;;;;;;5033595;28;20409;-50